< Typhoon 200716 2007 Season Typhoon 200718 >
Typhoon 200717 (PODUL)
General InformationTrack Information on Google MapsDetailed Wind InformationAccess Analytics MapList of All Images || Disaster Info.WeblogTrackbackTyphoon FrontResourceGoogle EarthGE AnimationAtom FeedGeoJSON
Detalied Best Track (Time Zone = UTC)
Year Month Day Hour Lat. Long. Pressure (hPa) Wind (kt) Class Image Chart
2007 10 3 00 19.7 146.7 1008 0 2 Image Chart
2007 10 3 06 21.3 147.6 1006 0 2 Image Chart
2007 10 3 12 22.5 147.6 1004 0 2 Image Chart
2007 10 3 18 23.6 148.2 1002 0 2 Image Chart
2007 10 4 00 24.1 148.1 1002 0 2 Image Chart
2007 10 4 06 24.2 148.0 1002 0 2 Image Chart
2007 10 4 12 24.4 148.4 1002 0 2 Image Chart
2007 10 4 18 24.7 148.8 1002 0 2 Image Chart
2007 10 5 00 25.3 149.7 1000 35 3 Image Chart
2007 10 5 06 26.3 150.4 1000 35 3 Image Chart
2007 10 5 12 27.2 151.3 996 40 3 Image Chart
2007 10 5 18 28.4 152.4 994 45 3 Image Chart
2007 10 6 00 30.0 153.3 990 50 4 Image Chart
2007 10 6 06 32.2 155.6 985 55 4 Image Chart
2007 10 6 12 34.2 158.2 985 55 4 Image Chart
2007 10 6 18 36.0 160.8 985 55 4 Image Chart
2007 10 7 00 39.1 163.6 990 50 4 Image Chart
2007 10 7 06 42.1 165.6 990 0 6 Image Chart
2007 10 7 12 44.0 167.5 990 0 6 Image Chart
2007 10 7 18 45.2 169.5 994 0 6 Image Chart
2007 10 8 00 46.2 170.5 996 0 6 Image Chart
2007 10 8 06 47.1 170.8 994 0 6 Image Chart
2007 10 8 12 47.4 170.7 994 0 6 Image Chart
2007 10 8 18 47.9 172.7 994 0 6 Image Chart
Japan Meteorological Agency Best Track Data | Correction Date : 2007-11-28
< Typhoon 200716 2007 Season Typhoon 200718 >

Help